createdAt,value
2018-10-18T00:00:48.282Z,13.17
2018-10-18T00:03:22.176Z,13.16
2018-10-18T00:05:56.173Z,13.14
2018-10-18T00:08:30.134Z,13.13
2018-10-18T00:11:04.002Z,13.12
2018-10-18T00:13:37.888Z,13.12
2018-10-18T00:16:11.684Z,13.09
2018-10-18T00:18:45.593Z,13.08
2018-10-18T00:21:19.432Z,13.07
2018-10-18T00:23:53.363Z,13.06
2018-10-18T00:26:27.216Z,13.03
2018-10-18T00:29:01.112Z,13.01
2018-10-18T00:31:34.985Z,12.98
2018-10-18T00:34:08.869Z,12.95
2018-10-18T00:36:42.710Z,12.92
2018-10-18T00:39:16.723Z,12.88
2018-10-18T00:41:50.615Z,12.88
2018-10-18T00:44:24.459Z,12.87
2018-10-18T00:46:58.316Z,12.88
2018-10-18T00:49:32.219Z,12.86
2018-10-18T00:52:06.404Z,12.87
2018-10-18T00:54:40.267Z,12.87
2018-10-18T00:57:14.255Z,12.90
2018-10-18T00:59:48.196Z,12.93
2018-10-18T01:02:22.018Z,12.98
2018-10-18T01:04:56.028Z,13.02
2018-10-18T01:07:29.856Z,13.02
2018-10-18T01:10:03.933Z,13.06
2018-10-18T01:12:37.801Z,13.08
2018-10-18T01:15:11.700Z,13.08
2018-10-18T01:17:45.553Z,13.11
2018-10-18T01:20:19.549Z,13.15
2018-10-18T01:22:53.458Z,13.18
2018-10-18T01:25:27.405Z,13.21
2018-10-18T01:28:01.238Z,13.27
2018-10-18T01:30:35.239Z,13.31
2018-10-18T01:33:09.070Z,13.38
2018-10-18T01:35:43.023Z,13.44
2018-10-18T01:38:17.070Z,13.51
2018-10-18T01:40:51.965Z,13.53
2018-10-18T01:43:25.866Z,13.59
2018-10-18T01:45:59.841Z,13.67
2018-10-18T01:48:33.810Z,13.71
2018-10-18T01:51:07.751Z,13.81
2018-10-18T01:53:41.705Z,13.89
2018-10-18T01:56:15.852Z,13.97
2018-10-18T01:58:49.725Z,14.02
2018-10-18T02:01:23.693Z,14.11
2018-10-18T02:03:57.522Z,14.24
2018-10-18T02:06:31.400Z,14.38
2018-10-18T02:09:08.444Z,14.50
2018-10-18T02:11:42.908Z,14.64
2018-10-18T02:14:16.783Z,14.78
2018-10-18T02:16:50.707Z,14.88
2018-10-18T02:19:24.613Z,15.04
2018-10-18T02:21:58.721Z,15.19
2018-10-18T02:24:32.612Z,15.32
2018-10-18T02:27:06.636Z,15.42
2018-10-18T02:29:40.595Z,15.55
2018-10-18T02:32:14.477Z,15.63
2018-10-18T02:34:48.382Z,15.75
2018-10-18T02:37:22.265Z,15.84
2018-10-18T02:39:56.140Z,15.89
2018-10-18T02:42:30.063Z,15.98
2018-10-18T02:45:03.997Z,16.04
2018-10-18T02:47:37.936Z,16.10
2018-10-18T02:50:11.797Z,16.17
2018-10-18T02:52:45.763Z,16.21
2018-10-18T02:55:19.665Z,16.31
2018-10-18T02:57:53.526Z,16.34
2018-10-18T03:00:27.374Z,16.36
2018-10-18T03:03:01.285Z,16.43
2018-10-18T03:05:35.090Z,16.50
2018-10-18T03:08:08.968Z,16.53
2018-10-18T03:10:42.873Z,16.56
2018-10-18T03:13:16.739Z,16.57
2018-10-18T03:15:50.628Z,16.56
2018-10-18T03:18:24.521Z,16.57
2018-10-18T03:20:58.354Z,16.60
2018-10-18T03:23:32.617Z,16.52
2018-10-18T03:26:06.503Z,16.53
2018-10-18T03:28:40.470Z,16.58
2018-10-18T03:31:14.396Z,16.58
2018-10-18T03:33:49.319Z,16.61
2018-10-18T03:36:23.235Z,16.65
2018-10-18T03:38:57.168Z,16.67
2018-10-18T03:41:30.992Z,16.63
2018-10-18T03:44:05.262Z,16.67
2018-10-18T03:46:39.094Z,16.73
2018-10-18T03:49:13.023Z,16.73
2018-10-18T03:51:46.948Z,16.75
2018-10-18T03:54:20.908Z,16.77
2018-10-18T03:56:54.989Z,16.78
2018-10-18T03:59:28.897Z,16.80
2018-10-18T04:02:02.713Z,16.84
2018-10-18T04:04:36.646Z,16.81
2018-10-18T04:07:10.749Z,16.84
2018-10-18T04:09:44.640Z,16.83
2018-10-18T04:12:18.571Z,16.83
2018-10-18T04:14:52.395Z,16.85
2018-10-18T04:17:26.197Z,16.85
2018-10-18T04:20:00.153Z,16.90
2018-10-18T04:22:33.967Z,16.89
2018-10-18T04:25:08.253Z,16.91
2018-10-18T04:27:42.090Z,16.93
2018-10-18T04:30:16.002Z,16.98
2018-10-18T04:32:49.816Z,16.98
2018-10-18T04:35:23.687Z,17.01
2018-10-18T04:37:57.624Z,17.02
2018-10-18T04:40:31.497Z,17.03
2018-10-18T04:43:05.735Z,17.05
2018-10-18T04:45:39.699Z,17.08
2018-10-18T04:48:13.939Z,17.11
2018-10-18T04:50:47.772Z,17.13
2018-10-18T04:53:21.636Z,17.14
2018-10-18T04:55:56.068Z,17.13
2018-10-18T04:58:29.850Z,17.15
2018-10-18T05:01:03.782Z,17.17
2018-10-18T05:03:37.609Z,17.15
2018-10-18T05:06:11.516Z,17.16
2018-10-18T05:08:45.343Z,17.15
2018-10-18T05:11:19.243Z,17.13
2018-10-18T05:13:53.065Z,17.14
2018-10-18T05:16:26.935Z,17.14
2018-10-18T05:19:00.801Z,17.15
2018-10-18T05:21:34.658Z,17.16
2018-10-18T05:24:08.604Z,17.16
2018-10-18T05:26:42.520Z,17.14
2018-10-18T05:29:16.422Z,17.15
2018-10-18T05:31:50.472Z,17.17
2018-10-18T05:34:24.304Z,17.17
2018-10-18T05:36:58.304Z,17.19
2018-10-18T05:39:32.109Z,17.20
2018-10-18T05:42:06.046Z,17.24
2018-10-18T05:44:39.874Z,17.28
2018-10-18T05:47:13.951Z,17.29
2018-10-18T05:49:47.753Z,17.31
2018-10-18T05:52:21.749Z,17.32
2018-10-18T05:54:55.811Z,17.34
2018-10-18T05:57:29.685Z,17.36
2018-10-18T06:00:03.716Z,17.35
2018-10-18T06:02:37.856Z,17.37
2018-10-18T06:05:13.132Z,17.39
2018-10-18T06:07:47.222Z,17.43
2018-10-18T06:10:32.281Z,17.44
2018-10-18T06:13:06.228Z,17.47
2018-10-18T06:15:40.131Z,17.45
2018-10-18T06:18:14.124Z,17.46
2018-10-18T06:20:48.025Z,17.46
2018-10-18T06:23:22.037Z,17.49
2018-10-18T06:25:55.972Z,17.50
2018-10-18T06:28:29.953Z,17.51
2018-10-18T06:31:03.984Z,17.53
2018-10-18T06:33:37.953Z,17.57
2018-10-18T06:36:12.094Z,17.58
2018-10-18T06:38:45.987Z,17.60
2018-10-18T06:41:19.869Z,17.60
2018-10-18T06:43:53.767Z,17.62
2018-10-18T06:46:27.651Z,17.62
2018-10-18T06:49:01.659Z,17.60
2018-10-18T06:51:35.494Z,17.61
2018-10-18T06:54:09.648Z,17.48
2018-10-18T06:56:43.516Z,17.48
2018-10-18T06:59:17.426Z,17.48
2018-10-18T07:01:51.320Z,17.50
2018-10-18T07:04:25.197Z,17.42
2018-10-18T07:06:59.107Z,17.39
2018-10-18T07:09:33.165Z,17.27
2018-10-18T07:12:07.466Z,17.26
2018-10-18T07:14:41.318Z,17.22
2018-10-18T07:17:15.604Z,17.17
2018-10-18T07:19:50.034Z,17.22
2018-10-18T07:22:23.930Z,17.20
2018-10-18T07:24:57.847Z,17.25
2018-10-18T07:27:31.833Z,17.24
2018-10-18T07:30:07.413Z,17.26
2018-10-18T07:32:41.339Z,17.26
2018-10-18T07:35:15.521Z,17.25
2018-10-18T07:37:49.612Z,17.28
2018-10-18T07:40:23.552Z,17.33
2018-10-18T07:42:57.444Z,17.31
2018-10-18T07:45:31.424Z,17.29
2018-10-18T07:48:05.704Z,17.37
2018-10-18T07:50:39.590Z,17.39
2018-10-18T07:53:13.631Z,17.44
2018-10-18T07:55:47.691Z,17.45
2018-10-18T07:58:21.565Z,17.49
2018-10-18T08:00:55.592Z,17.55
2018-10-18T08:03:31.063Z,17.56
2018-10-18T08:06:05.188Z,17.61
2018-10-18T08:08:39.065Z,17.67
2018-10-18T08:11:13.639Z,17.74
2018-10-18T08:13:47.541Z,17.76
2018-10-18T08:16:21.480Z,17.83
2018-10-18T08:18:55.402Z,17.84
2018-10-18T08:21:29.337Z,17.83
2018-10-18T08:24:03.255Z,17.95
2018-10-18T08:26:37.229Z,18.08
2018-10-18T08:29:11.125Z,18.19
2018-10-18T08:31:45.165Z,18.33
2018-10-18T08:34:19.465Z,18.48
2018-10-18T08:36:53.614Z,18.59
2018-10-18T08:39:27.512Z,18.64
2018-10-18T08:42:01.481Z,18.69
2018-10-18T08:44:35.509Z,18.72
2018-10-18T08:47:09.528Z,18.70
2018-10-18T08:49:43.514Z,18.65
2018-10-18T08:52:17.450Z,18.64
2018-10-18T08:54:51.330Z,18.65
2018-10-18T08:57:25.258Z,18.65
2018-10-18T08:59:59.137Z,18.71
2018-10-18T09:02:33.103Z,18.81
2018-10-18T09:05:07.482Z,18.90
2018-10-18T09:07:41.421Z,19.02
2018-10-18T09:10:15.456Z,19.13
2018-10-18T09:12:49.369Z,19.18
2018-10-18T09:15:23.257Z,19.21
2018-10-18T09:17:57.298Z,19.15
2018-10-18T09:20:31.213Z,19.13
2018-10-18T09:23:05.311Z,19.05
2018-10-18T09:25:39.144Z,18.95
2018-10-18T09:28:13.036Z,18.99
2018-10-18T09:30:46.896Z,18.91
2018-10-18T09:33:20.878Z,18.78
2018-10-18T09:35:54.713Z,18.72
2018-10-18T09:38:28.640Z,18.74
2018-10-18T09:41:02.572Z,18.75
2018-10-18T09:43:36.492Z,18.74
2018-10-18T09:46:10.387Z,18.62
2018-10-18T09:48:44.318Z,18.63
2018-10-18T09:51:18.173Z,18.70
2018-10-18T09:53:52.111Z,18.70
2018-10-18T09:56:26.116Z,18.69
2018-10-18T09:59:00.013Z,18.76
2018-10-18T10:01:39.006Z,18.80
2018-10-18T10:04:12.948Z,18.87
2018-10-18T10:06:46.821Z,18.86
2018-10-18T10:09:20.801Z,18.78
2018-10-18T10:11:54.652Z,18.77
2018-10-18T10:14:28.654Z,18.85
2018-10-18T10:17:02.566Z,19.07
2018-10-18T10:19:36.491Z,19.38
2018-10-18T10:22:10.378Z,19.53
2018-10-18T10:24:44.339Z,19.61
2018-10-18T10:27:18.236Z,19.57
2018-10-18T10:29:52.125Z,19.62
2018-10-18T10:32:26.000Z,19.67
2018-10-18T10:34:59.922Z,19.84
2018-10-18T10:37:33.866Z,19.94
2018-10-18T10:40:09.140Z,19.96
2018-10-18T10:42:43.261Z,20.06
2018-10-18T10:45:17.442Z,20.13
2018-10-18T10:47:52.078Z,20.05
2018-10-18T10:50:25.999Z,19.94
2018-10-18T10:52:59.845Z,20.03
2018-10-18T10:55:33.744Z,20.08
2018-10-18T10:58:07.914Z,20.10
2018-10-18T11:01:15.783Z,20.12
2018-10-18T11:03:51.146Z,20.15
2018-10-18T11:06:25.290Z,20.14
2018-10-18T11:08:59.172Z,20.13
2018-10-18T11:11:33.064Z,20.01
2018-10-18T11:14:07.033Z,19.88
2018-10-18T11:16:40.970Z,19.82
2018-10-18T11:19:15.870Z,19.70
2018-10-18T11:21:49.972Z,19.65
2018-10-18T11:24:23.797Z,19.69
2018-10-18T11:26:57.811Z,19.65
2018-10-18T11:29:31.683Z,19.71
2018-10-18T11:32:05.891Z,19.70
2018-10-18T11:34:39.802Z,19.78
2018-10-18T11:37:13.750Z,19.96
2018-10-18T11:39:47.635Z,20.16
2018-10-18T11:42:21.805Z,20.28
2018-10-18T11:44:55.588Z,20.57
2018-10-18T11:47:29.596Z,20.71
2018-10-18T11:50:03.480Z,20.72
2018-10-18T11:52:37.483Z,20.65
2018-10-18T11:55:11.441Z,20.35
2018-10-18T11:57:45.638Z,20.31
2018-10-18T12:00:20.144Z,20.26
2018-10-18T12:02:54.140Z,20.27
2018-10-18T12:05:28.077Z,20.20
2018-10-18T12:08:02.114Z,20.17
2018-10-18T12:10:35.988Z,20.19
2018-10-18T12:13:09.993Z,20.13
2018-10-18T12:15:43.867Z,20.13
2018-10-18T12:18:17.764Z,20.09
2018-10-18T12:20:51.645Z,20.11
2018-10-18T12:23:25.531Z,20.10
2018-10-18T12:25:59.399Z,20.12
2018-10-18T12:28:33.341Z,20.17
2018-10-18T12:31:07.320Z,20.26
2018-10-18T12:33:41.200Z,20.25
2018-10-18T12:36:15.091Z,20.30
2018-10-18T12:38:49.085Z,20.17
2018-10-18T12:41:25.321Z,20.17
2018-10-18T12:43:59.252Z,20.18
2018-10-18T12:46:33.136Z,20.28
2018-10-18T12:49:07.090Z,20.31
2018-10-18T12:51:41.030Z,20.31
2018-10-18T12:54:15.031Z,20.41
2018-10-18T12:56:48.988Z,20.53
2018-10-18T12:59:23.430Z,20.59
2018-10-18T13:01:57.426Z,20.63
2018-10-18T13:04:31.352Z,20.65
2018-10-18T13:07:05.539Z,20.71
2018-10-18T13:09:39.529Z,20.69
2018-10-18T13:12:13.554Z,20.64
2018-10-18T13:14:47.643Z,20.57
2018-10-18T13:18:08.602Z,20.52
2018-10-18T13:20:43.685Z,20.47
2018-10-18T13:23:17.621Z,20.43
2018-10-18T13:25:53.574Z,20.40
2018-10-18T13:29:07.884Z,20.35
2018-10-18T13:31:42.568Z,20.26
2018-10-18T13:34:16.537Z,20.22
2018-10-18T13:36:50.477Z,20.15
2018-10-18T13:39:24.420Z,20.08
2018-10-18T13:41:58.449Z,20.09
2018-10-18T13:44:32.349Z,20.13
2018-10-18T13:47:06.462Z,20.08
2018-10-18T13:49:40.374Z,20.11
2018-10-18T13:52:14.324Z,20.13
2018-10-18T13:54:48.213Z,20.11
2018-10-18T13:57:22.292Z,20.08
2018-10-18T14:00:28.684Z,20.08
2018-10-18T14:03:02.676Z,20.10
2018-10-18T14:05:36.678Z,20.08
2018-10-18T14:08:10.708Z,20.03
2018-10-18T14:10:44.561Z,20.00
2018-10-18T14:13:18.496Z,19.96
2018-10-18T14:15:52.384Z,19.94
2018-10-18T14:18:26.293Z,19.93
2018-10-18T14:21:00.198Z,19.91
2018-10-18T14:23:34.242Z,19.90
2018-10-18T14:26:08.270Z,19.85
2018-10-18T14:28:42.067Z,19.71
2018-10-18T14:31:16.133Z,19.60
2018-10-18T14:33:50.153Z,19.55
2018-10-18T14:36:24.039Z,19.47
2018-10-18T14:38:58.342Z,19.37
2018-10-18T14:41:32.237Z,19.27
2018-10-18T14:44:06.540Z,19.21
2018-10-18T14:46:40.425Z,19.22
2018-10-18T14:49:14.310Z,19.08
2018-10-18T14:51:48.210Z,19.02
2018-10-18T14:54:22.153Z,18.99
2018-10-18T14:56:56.015Z,18.96
2018-10-18T14:59:30.077Z,18.92
2018-10-18T15:02:04.173Z,18.86
2018-10-18T15:04:38.432Z,18.84
2018-10-18T15:07:12.244Z,18.84
2018-10-18T15:09:46.181Z,18.83
2018-10-18T15:12:20.059Z,18.78
2018-10-18T15:14:53.989Z,18.71
2018-10-18T15:17:27.851Z,18.66
2018-10-18T15:20:03.839Z,18.66
2018-10-18T15:22:47.189Z,18.64
2018-10-18T15:25:21.373Z,18.60
2018-10-18T15:27:55.207Z,18.61
2018-10-18T15:30:29.152Z,18.57
2018-10-18T15:33:03.101Z,18.58
2018-10-18T15:35:37.029Z,18.59
2018-10-18T15:38:11.116Z,18.51
2018-10-18T15:40:44.979Z,18.39
2018-10-18T15:43:19.068Z,18.22
2018-10-18T15:45:52.957Z,18.15
2018-10-18T15:48:26.970Z,18.07
2018-10-18T15:51:03.129Z,18.01
2018-10-18T15:53:37.237Z,17.96
2018-10-18T15:56:23.895Z,17.89
2018-10-18T15:58:57.949Z,17.80
2018-10-18T16:01:32.050Z,17.76
2018-10-18T16:04:06.868Z,17.73
2018-10-18T16:06:41.269Z,17.63
2018-10-18T16:09:15.793Z,17.57
2018-10-18T16:11:50.946Z,17.48
2018-10-18T16:14:24.908Z,17.39
2018-10-18T16:16:59.002Z,17.31
2018-10-18T16:19:33.072Z,17.30
2018-10-18T16:22:07.368Z,17.26
2018-10-18T16:24:41.384Z,17.25
2018-10-18T16:27:16.436Z,17.21
2018-10-18T16:29:50.629Z,17.17
2018-10-18T16:32:24.615Z,17.18
2018-10-18T16:34:59.115Z,17.17
2018-10-18T16:37:33.188Z,17.18
2018-10-18T16:40:07.622Z,17.16
2018-10-18T16:42:41.779Z,17.13
2018-10-18T16:45:15.675Z,17.14
2018-10-18T16:47:49.664Z,17.12
2018-10-18T16:50:23.651Z,17.09
2018-10-18T16:52:57.629Z,17.06
2018-10-18T16:55:31.580Z,17.05
2018-10-18T16:58:05.694Z,17.04
2018-10-18T17:00:39.536Z,17.01
2018-10-18T17:03:13.554Z,16.97
2018-10-18T17:05:47.554Z,16.92
2018-10-18T17:08:21.572Z,16.89
2018-10-18T17:10:56.323Z,16.86
2018-10-18T17:13:30.280Z,16.83
2018-10-18T17:16:04.277Z,16.79
2018-10-18T17:18:38.485Z,16.77
2018-10-18T17:21:12.514Z,16.77
2018-10-18T17:23:46.606Z,16.75
2018-10-18T17:26:20.618Z,16.75
2018-10-18T17:28:54.535Z,16.72
2018-10-18T17:31:28.845Z,16.67
2018-10-18T17:34:02.929Z,16.66
2018-10-18T17:36:36.811Z,16.63
2018-10-18T17:39:11.573Z,16.60
2018-10-18T17:41:45.471Z,16.54
2018-10-18T17:44:19.374Z,16.50
2018-10-18T17:46:53.334Z,16.44
2018-10-18T17:49:27.516Z,16.39
2018-10-18T17:52:02.116Z,16.33
2018-10-18T17:54:36.046Z,16.23
2018-10-18T17:57:10.173Z,16.15
2018-10-18T17:59:44.205Z,16.11
2018-10-18T18:02:18.341Z,16.04
2018-10-18T18:04:53.947Z,15.97
2018-10-18T18:07:28.108Z,15.91
2018-10-18T18:10:02.387Z,15.85
2018-10-18T18:12:36.556Z,15.79
2018-10-18T18:15:10.965Z,15.70
2018-10-18T18:17:44.884Z,15.62
2018-10-18T18:20:18.796Z,15.53
2018-10-18T18:22:53.002Z,15.46
2018-10-18T18:25:26.920Z,15.41
2018-10-18T18:28:00.749Z,15.33
2018-10-18T18:30:34.657Z,15.23
2018-10-18T18:33:08.537Z,15.15
2018-10-18T18:35:42.461Z,15.08
2018-10-18T18:38:16.296Z,15.01
2018-10-18T18:40:50.216Z,14.97
2018-10-18T18:43:24.108Z,14.90
2018-10-18T18:45:58.113Z,14.83
2018-10-18T18:48:31.952Z,14.72
2018-10-18T18:51:05.934Z,14.66
2018-10-18T18:53:39.784Z,14.57
2018-10-18T18:56:13.768Z,14.47
2018-10-18T18:58:47.611Z,14.40
2018-10-18T19:01:21.770Z,14.29
2018-10-18T19:03:55.650Z,14.22
2018-10-18T19:06:29.565Z,14.17
2018-10-18T19:09:03.655Z,14.09
2018-10-18T19:11:38.498Z,14.00
2018-10-18T19:14:12.461Z,13.92
2018-10-18T19:16:46.511Z,13.83
2018-10-18T19:19:20.352Z,13.74
2018-10-18T19:21:54.358Z,13.68
2018-10-18T19:24:28.218Z,13.63
2018-10-18T19:27:02.312Z,13.60
2018-10-18T19:29:36.273Z,13.54
2018-10-18T19:32:10.324Z,13.48
2018-10-18T19:34:44.476Z,13.39
2018-10-18T19:37:18.473Z,13.30
2018-10-18T19:39:52.367Z,13.25
2018-10-18T19:42:26.323Z,13.18
2018-10-18T19:45:00.221Z,13.11
2018-10-18T19:47:34.115Z,13.06
2018-10-18T19:50:09.017Z,12.97
2018-10-18T19:52:42.946Z,12.91
2018-10-18T19:55:16.750Z,12.89
2018-10-18T19:57:50.660Z,12.80
2018-10-18T20:00:24.517Z,12.75
2018-10-18T20:02:58.406Z,12.69
2018-10-18T20:05:32.232Z,12.62
2018-10-18T20:08:06.194Z,12.57
2018-10-18T20:10:39.975Z,12.51
2018-10-18T20:13:13.830Z,12.44
2018-10-18T20:15:47.834Z,12.39
2018-10-18T20:18:21.843Z,12.32
2018-10-18T20:20:55.627Z,12.27
2018-10-18T20:23:30.085Z,12.22
2018-10-18T20:26:04.206Z,12.17
2018-10-18T20:28:37.964Z,12.08
2018-10-18T20:31:11.855Z,12.04
2018-10-18T20:33:45.696Z,12.00
2018-10-18T20:36:19.550Z,11.95
2018-10-18T20:38:53.472Z,11.92
2018-10-18T20:41:28.025Z,11.91
2018-10-18T20:44:01.894Z,11.90
2018-10-18T20:46:35.814Z,11.85
2018-10-18T20:49:09.673Z,11.81
2018-10-18T20:51:46.473Z,11.78
2018-10-18T20:54:20.435Z,11.69
2018-10-18T20:56:54.255Z,11.61
2018-10-18T20:59:28.142Z,11.54
2018-10-18T21:02:03.060Z,11.48
2018-10-18T21:04:36.910Z,11.38
2018-10-18T21:07:10.702Z,11.30
2018-10-18T21:09:44.560Z,11.26
2018-10-18T21:12:18.407Z,11.22
2018-10-18T21:14:52.364Z,11.19
2018-10-18T21:17:26.204Z,11.14
2018-10-18T21:20:00.153Z,11.06
2018-10-18T21:22:34.005Z,11.01
2018-10-18T21:25:08.108Z,10.94
2018-10-18T21:27:41.981Z,10.88
2018-10-18T21:30:15.958Z,10.83
2018-10-18T21:32:49.795Z,10.79
2018-10-18T21:35:23.681Z,10.78
2018-10-18T21:37:57.619Z,10.77
2018-10-18T21:40:31.508Z,10.73
2018-10-18T21:43:05.495Z,10.69
2018-10-18T21:45:39.465Z,10.67
2018-10-18T21:48:13.424Z,10.62
2018-10-18T21:50:47.306Z,10.56
2018-10-18T21:53:21.161Z,10.54
2018-10-18T21:55:55.136Z,10.46
2018-10-18T21:58:28.954Z,10.43
2018-10-18T22:01:03.136Z,10.39
2018-10-18T22:03:36.999Z,10.36
2018-10-18T22:06:10.878Z,10.32
2018-10-18T22:08:44.726Z,10.26
2018-10-18T22:11:18.681Z,10.21
2018-10-18T22:13:52.521Z,10.18
2018-10-18T22:16:26.411Z,10.15
2018-10-18T22:19:00.289Z,10.13
2018-10-18T22:21:34.128Z,10.07
2018-10-18T22:24:09.204Z,9.98
2018-10-18T22:26:43.053Z,9.95
2018-10-18T22:29:16.968Z,9.90
2018-10-18T22:31:50.875Z,9.85
2018-10-18T22:34:24.705Z,9.82
2018-10-18T22:36:58.626Z,9.80
2018-10-18T22:39:32.547Z,9.76
2018-10-18T22:42:06.762Z,9.71
2018-10-18T22:44:40.706Z,9.65
2018-10-18T22:47:14.745Z,9.60
2018-10-18T22:49:48.608Z,9.56
2018-10-18T22:52:22.545Z,9.53
2018-10-18T22:54:56.494Z,9.51
2018-10-18T22:57:30.493Z,9.49
2018-10-18T23:00:04.702Z,9.48
2018-10-18T23:02:38.775Z,9.46
2018-10-18T23:05:12.706Z,9.43
2018-10-18T23:07:46.629Z,9.40
2018-10-18T23:10:20.518Z,9.37
2018-10-18T23:12:54.369Z,9.35
2018-10-18T23:15:28.213Z,9.30
2018-10-18T23:18:02.097Z,9.26
2018-10-18T23:20:35.938Z,9.23
2018-10-18T23:23:10.508Z,9.18
2018-10-18T23:25:44.376Z,9.13
2018-10-18T23:28:18.347Z,9.05
2018-10-18T23:30:52.160Z,9.01
2018-10-18T23:33:26.077Z,8.97
2018-10-18T23:35:59.909Z,8.94
2018-10-18T23:38:33.797Z,8.91
2018-10-18T23:41:07.922Z,8.89
2018-10-18T23:43:41.813Z,8.87
2018-10-18T23:46:15.678Z,8.80
2018-10-18T23:48:49.523Z,8.74
2018-10-18T23:51:23.349Z,8.68
2018-10-18T23:53:57.238Z,8.63
2018-10-18T23:56:31.143Z,8.59
2018-10-18T23:59:05.131Z,8.56
